sensor_id;sensor_type;location;lat;lon;timestamp;pressure;altitude;pressure_sealevel;temperature;humidity
74794;BME280;63320;50.768;6.724;2023-07-13T00:00:20;100153.59;;;17.74;50.51
74794;BME280;63320;50.768;6.724;2023-07-13T00:02:45;100154.13;;;17.66;50.97
74794;BME280;63320;50.768;6.724;2023-07-13T00:05:10;100148.72;;;18.01;49.83
74794;BME280;63320;50.768;6.724;2023-07-13T00:07:36;100153.47;;;17.98;50.18
74794;BME280;63320;50.768;6.724;2023-07-13T00:10:01;100150.56;;;18.44;49.05
74794;BME280;63320;50.768;6.724;2023-07-13T00:12:29;100155.63;;;18.47;48.84
74794;BME280;63320;50.768;6.724;2023-07-13T00:14:56;100152.03;;;18.37;48.91
74794;BME280;63320;50.768;6.724;2023-07-13T00:17:22;100155.13;;;17.99;50.13
74794;BME280;63320;50.768;6.724;2023-07-13T00:19:48;100149.84;;;17.88;50.61
74794;BME280;63320;50.768;6.724;2023-07-13T00:22:13;100159.88;;;17.73;50.96
74794;BME280;63320;50.768;6.724;2023-07-13T00:24:38;100149.53;;;17.57;52.05
74794;BME280;63320;50.768;6.724;2023-07-13T00:27:04;100152.31;;;17.55;51.39
74794;BME280;63320;50.768;6.724;2023-07-13T00:29:29;100152.31;;;17.55;51.92
74794;BME280;63320;50.768;6.724;2023-07-13T00:31:56;100155.41;;;17.16;52.78
74794;BME280;63320;50.768;6.724;2023-07-13T00:34:21;100151.25;;;17.58;52.04
74794;BME280;63320;50.768;6.724;2023-07-13T00:36:46;100147.00;;;17.67;51.84
74794;BME280;63320;50.768;6.724;2023-07-13T00:39:12;100151.75;;;17.97;51.53
74794;BME280;63320;50.768;6.724;2023-07-13T00:41:37;100156.94;;;17.65;51.66
74794;BME280;63320;50.768;6.724;2023-07-13T00:44:03;100149.19;;;17.50;52.04
74794;BME280;63320;50.768;6.724;2023-07-13T00:46:30;100160.88;;;17.37;52.43
74794;BME280;63320;50.768;6.724;2023-07-13T00:48:59;100148.69;;;17.34;52.87
74794;BME280;63320;50.768;6.724;2023-07-13T00:51:31;100147.56;;;17.14;53.42
74794;BME280;63320;50.768;6.724;2023-07-13T00:54:00;100147.22;;;17.41;52.83
74794;BME280;63320;50.768;6.724;2023-07-13T00:56:28;100140.66;;;17.12;54.00
74794;BME280;63320;50.768;6.724;2023-07-13T00:58:55;100138.09;;;16.64;55.21
74794;BME280;63320;50.768;6.724;2023-07-13T01:01:21;100143.22;;;16.54;55.60
74794;BME280;63320;50.768;6.724;2023-07-13T01:03:47;100143.38;;;16.64;55.22
74794;BME280;63320;50.768;6.724;2023-07-13T01:06:14;100144.59;;;16.83;54.60
74794;BME280;63320;50.768;6.724;2023-07-13T01:08:39;100143.38;;;17.23;53.98
74794;BME280;63320;50.768;6.724;2023-07-13T01:11:04;100150.03;;;16.82;54.37
74794;BME280;63320;50.768;6.724;2023-07-13T01:13:30;100146.94;;;17.11;53.90
74794;BME280;63320;50.768;6.724;2023-07-13T01:15:57;100138.41;;;17.29;53.20
74794;BME280;63320;50.768;6.724;2023-07-13T01:18:25;100144.94;;;17.37;53.25
74794;BME280;63320;50.768;6.724;2023-07-13T01:20:53;100133.28;;;16.93;54.18
74794;BME280;63320;50.768;6.724;2023-07-13T01:23:19;100134.56;;;17.22;53.15
74794;BME280;63320;50.768;6.724;2023-07-13T01:25:45;100144.84;;;17.49;52.81
74794;BME280;63320;50.768;6.724;2023-07-13T01:28:10;100144.00;;;17.38;52.88
74794;BME280;63320;50.768;6.724;2023-07-13T01:30:36;100144.34;;;17.55;52.46
74794;BME280;63320;50.768;6.724;2023-07-13T01:35:33;100149.41;;;17.25;53.20
74794;BME280;63320;50.768;6.724;2023-07-13T01:38:00;100141.66;;;17.22;53.53
74794;BME280;63320;50.768;6.724;2023-07-13T01:40:25;100145.81;;;17.48;52.75
74794;BME280;63320;50.768;6.724;2023-07-13T01:42:51;100142.91;;;17.40;52.68
74794;BME280;63320;50.768;6.724;2023-07-13T01:45:16;100141.59;;;17.68;52.02
74794;BME280;63320;50.768;6.724;2023-07-13T01:47:41;100142.06;;;17.51;52.29
74794;BME280;63320;50.768;6.724;2023-07-13T01:50:07;100132.63;;;17.35;53.13
74794;BME280;63320;50.768;6.724;2023-07-13T01:52:33;100128.69;;;16.71;54.80
74794;BME280;63320;50.768;6.724;2023-07-13T01:54:59;100130.31;;;17.31;53.11
74794;BME280;63320;50.768;6.724;2023-07-13T01:57:25;100136.81;;;16.56;54.91
74794;BME280;63320;50.768;6.724;2023-07-13T01:59:50;100148.97;;;16.24;56.95
74794;BME280;63320;50.768;6.724;2023-07-13T02:02:15;100139.91;;;16.87;54.88
74794;BME280;63320;50.768;6.724;2023-07-13T02:04:41;100143.22;;;17.13;53.99
74794;BME280;63320;50.768;6.724;2023-07-13T02:07:07;100143.25;;;17.35;53.42
74794;BME280;63320;50.768;6.724;2023-07-13T02:09:33;100151.09;;;17.26;53.39
74794;BME280;63320;50.768;6.724;2023-07-13T02:11:59;100150.34;;;17.13;53.54
74794;BME280;63320;50.768;6.724;2023-07-13T02:14:25;100154.09;;;17.21;53.90
74794;BME280;63320;50.768;6.724;2023-07-13T02:16:50;100150.59;;;17.21;53.80
74794;BME280;63320;50.768;6.724;2023-07-13T02:19:15;100155.25;;;17.06;54.39
74794;BME280;63320;50.768;6.724;2023-07-13T02:21:41;100154.44;;;17.17;53.81
74794;BME280;63320;50.768;6.724;2023-07-13T02:24:06;100153.38;;;16.60;55.58
74794;BME280;63320;50.768;6.724;2023-07-13T02:26:31;100150.88;;;16.70;55.43
74794;BME280;63320;50.768;6.724;2023-07-13T02:28:58;100164.47;;;17.13;53.91
74794;BME280;63320;50.768;6.724;2023-07-13T02:31:23;100157.56;;;17.11;53.97
74794;BME280;63320;50.768;6.724;2023-07-13T02:33:49;100152.56;;;16.83;54.76
74794;BME280;63320;50.768;6.724;2023-07-13T02:36:14;100157.28;;;16.91;54.79
74794;BME280;63320;50.768;6.724;2023-07-13T02:38:40;100158.53;;;17.09;53.69
74794;BME280;63320;50.768;6.724;2023-07-13T02:41:07;100146.13;;;16.75;54.73
74794;BME280;63320;50.768;6.724;2023-07-13T02:43:32;100149.72;;;16.50;55.92
74794;BME280;63320;50.768;6.724;2023-07-13T02:46:00;100151.72;;;16.70;54.84
74794;BME280;63320;50.768;6.724;2023-07-13T02:48:25;100143.19;;;16.67;54.96
74794;BME280;63320;50.768;6.724;2023-07-13T02:50:51;100146.25;;;16.61;55.29
74794;BME280;63320;50.768;6.724;2023-07-13T02:53:16;100145.72;;;16.68;55.26
74794;BME280;63320;50.768;6.724;2023-07-13T02:55:41;100145.09;;;16.89;54.48
74794;BME280;63320;50.768;6.724;2023-07-13T02:58:07;100147.22;;;16.72;54.89
74794;BME280;63320;50.768;6.724;2023-07-13T03:00:32;100149.25;;;17.15;53.68
74794;BME280;63320;50.768;6.724;2023-07-13T03:02:59;100152.94;;;16.90;54.13
74794;BME280;63320;50.768;6.724;2023-07-13T03:05:24;100161.63;;;16.68;54.65
74794;BME280;63320;50.768;6.724;2023-07-13T03:07:50;100154.00;;;16.64;54.82
74794;BME280;63320;50.768;6.724;2023-07-13T03:10:15;100164.69;;;16.27;55.65
74794;BME280;63320;50.768;6.724;2023-07-13T03:12:40;100170.13;;;16.13;56.54
74794;BME280;63320;50.768;6.724;2023-07-13T03:15:06;100167.78;;;15.71;57.39
74794;BME280;63320;50.768;6.724;2023-07-13T03:17:31;100165.72;;;16.37;55.91
74794;BME280;63320;50.768;6.724;2023-07-13T03:19:58;100163.09;;;15.75;57.78
74794;BME280;63320;50.768;6.724;2023-07-13T03:22:24;100167.06;;;16.43;56.07
74794;BME280;63320;50.768;6.724;2023-07-13T03:24:49;100175.69;;;16.34;56.31
74794;BME280;63320;50.768;6.724;2023-07-13T03:27:15;100167.88;;;16.19;56.95
74794;BME280;63320;50.768;6.724;2023-07-13T03:29:40;100171.91;;;16.25;56.78
74794;BME280;63320;50.768;6.724;2023-07-13T03:32:06;100168.50;;;15.73;58.15
74794;BME280;63320;50.768;6.724;2023-07-13T03:34:31;100166.59;;;15.75;58.64
74794;BME280;63320;50.768;6.724;2023-07-13T03:36:58;100169.44;;;15.85;58.98
74794;BME280;63320;50.768;6.724;2023-07-13T03:39:23;100169.25;;;16.25;57.52
74794;BME280;63320;50.768;6.724;2023-07-13T03:41:49;100181.00;;;15.97;58.18
74794;BME280;63320;50.768;6.724;2023-07-13T03:44:15;100177.41;;;15.85;58.99
74794;BME280;63320;50.768;6.724;2023-07-13T03:46:41;100180.03;;;15.60;60.07
74794;BME280;63320;50.768;6.724;2023-07-13T03:49:06;100181.63;;;15.49;59.99
74794;BME280;63320;50.768;6.724;2023-07-13T03:51:31;100187.47;;;15.16;61.54
74794;BME280;63320;50.768;6.724;2023-07-13T03:53:58;100187.69;;;15.39;61.16
74794;BME280;63320;50.768;6.724;2023-07-13T03:56:23;100193.72;;;15.28;61.63
74794;BME280;63320;50.768;6.724;2023-07-13T03:58:49;100193.84;;;14.87;63.38
74794;BME280;63320;50.768;6.724;2023-07-13T04:01:17;100200.16;;;15.24;62.97
74794;BME280;63320;50.768;6.724;2023-07-13T04:03:43;100195.94;;;15.21;62.62
74794;BME280;63320;50.768;6.724;2023-07-13T04:06:14;100207.69;;;15.55;61.76
74794;BME280;63320;50.768;6.724;2023-07-13T04:08:40;100201.56;;;15.42;62.26
74794;BME280;63320;50.768;6.724;2023-07-13T04:11:07;100204.31;;;15.28;63.25
74794;BME280;63320;50.768;6.724;2023-07-13T04:13:32;100202.53;;;15.41;63.22
74794;BME280;63320;50.768;6.724;2023-07-13T04:15:58;100195.94;;;15.60;62.36
74794;BME280;63320;50.768;6.724;2023-07-13T04:18:23;100196.50;;;15.52;62.93
74794;BME280;63320;50.768;6.724;2023-07-13T04:20:50;100200.28;;;15.61;62.42
74794;BME280;63320;50.768;6.724;2023-07-13T04:23:15;100206.97;;;15.53;62.73
74794;BME280;63320;50.768;6.724;2023-07-13T04:25:43;100205.81;;;15.32;63.75
74794;BME280;63320;50.768;6.724;2023-07-13T04:28:10;100205.81;;;15.58;63.42
74794;BME280;63320;50.768;6.724;2023-07-13T04:30:35;100203.53;;;15.26;64.67
74794;BME280;63320;50.768;6.724;2023-07-13T04:33:00;100202.28;;;15.19;64.81
74794;BME280;63320;50.768;6.724;2023-07-13T04:35:26;100205.91;;;15.43;64.26
74794;BME280;63320;50.768;6.724;2023-07-13T04:37:51;100210.34;;;15.30;65.00
74794;BME280;63320;50.768;6.724;2023-07-13T04:40:17;100208.41;;;15.19;65.33
74794;BME280;63320;50.768;6.724;2023-07-13T04:42:43;100213.25;;;15.65;64.38
74794;BME280;63320;50.768;6.724;2023-07-13T04:45:10;100214.19;;;15.51;64.60
74794;BME280;63320;50.768;6.724;2023-07-13T04:47:35;100213.84;;;15.43;65.29
74794;BME280;63320;50.768;6.724;2023-07-13T04:50:01;100216.34;;;15.72;64.33
74794;BME280;63320;50.768;6.724;2023-07-13T04:52:26;100213.53;;;15.61;64.69
74794;BME280;63320;50.768;6.724;2023-07-13T04:54:52;100214.09;;;15.66;64.59
74794;BME280;63320;50.768;6.724;2023-07-13T04:57:17;100226.63;;;15.64;65.01
74794;BME280;63320;50.768;6.724;2023-07-13T04:59:42;100232.09;;;15.61;64.62
74794;BME280;63320;50.768;6.724;2023-07-13T05:02:09;100219.16;;;15.56;65.27
74794;BME280;63320;50.768;6.724;2023-07-13T05:04:35;100227.25;;;15.93;64.05
74794;BME280;63320;50.768;6.724;2023-07-13T05:07:00;100228.75;;;15.71;64.89
74794;BME280;63320;50.768;6.724;2023-07-13T05:09:26;100227.66;;;15.99;64.04
74794;BME280;63320;50.768;6.724;2023-07-13T05:11:51;100231.88;;;16.15;63.52
74794;BME280;63320;50.768;6.724;2023-07-13T05:14:16;100238.47;;;16.22;63.66
74794;BME280;63320;50.768;6.724;2023-07-13T05:16:42;100228.88;;;16.32;63.22
74794;BME280;63320;50.768;6.724;2023-07-13T05:19:09;100233.59;;;16.03;64.03
74794;BME280;63320;50.768;6.724;2023-07-13T05:21:34;100239.00;;;16.51;62.99
74794;BME280;63320;50.768;6.724;2023-07-13T05:23:59;100253.50;;;16.34;62.77
74794;BME280;63320;50.768;6.724;2023-07-13T05:26:25;100240.78;;;16.63;62.46
74794;BME280;63320;50.768;6.724;2023-07-13T05:28:50;100250.31;;;16.29;63.02
74794;BME280;63320;50.768;6.724;2023-07-13T05:31:16;100245.63;;;16.82;61.78
74794;BME280;63320;50.768;6.724;2023-07-13T05:33:41;100249.53;;;16.52;62.82
74794;BME280;63320;50.768;6.724;2023-07-13T05:36:08;100248.50;;;16.79;61.92
74794;BME280;63320;50.768;6.724;2023-07-13T05:38:33;100248.03;;;16.85;61.15
74794;BME280;63320;50.768;6.724;2023-07-13T05:40:59;100245.94;;;17.01;60.66
74794;BME280;63320;50.768;6.724;2023-07-13T05:43:24;100254.94;;;16.88;61.50
74794;BME280;63320;50.768;6.724;2023-07-13T05:45:52;100245.91;;;17.25;60.64
74794;BME280;63320;50.768;6.724;2023-07-13T05:48:17;100251.19;;;16.90;61.59
74794;BME280;63320;50.768;6.724;2023-07-13T05:50:43;100256.75;;;16.87;61.68
74794;BME280;63320;50.768;6.724;2023-07-13T05:53:09;100251.50;;;16.98;61.26
74794;BME280;63320;50.768;6.724;2023-07-13T05:55:35;100254.09;;;16.87;61.67
74794;BME280;63320;50.768;6.724;2023-07-13T05:58:01;100253.31;;;16.98;61.56
74794;BME280;63320;50.768;6.724;2023-07-13T06:00:27;100257.34;;;17.15;60.74
74794;BME280;63320;50.768;6.724;2023-07-13T06:02:52;100272.22;;;17.17;60.80
74794;BME280;63320;50.768;6.724;2023-07-13T06:05:18;100253.53;;;17.30;60.44
74794;BME280;63320;50.768;6.724;2023-07-13T06:07:44;100260.28;;;17.23;60.95
74794;BME280;63320;50.768;6.724;2023-07-13T06:10:10;100258.00;;;17.29;60.86
74794;BME280;63320;50.768;6.724;2023-07-13T06:12:36;100262.94;;;17.23;60.95
74794;BME280;63320;50.768;6.724;2023-07-13T06:15:01;100273.63;;;17.45;60.16
74794;BME280;63320;50.768;6.724;2023-07-13T06:17:27;100268.84;;;17.26;60.60
74794;BME280;63320;50.768;6.724;2023-07-13T06:19:52;100272.25;;;17.64;59.54
74794;BME280;63320;50.768;6.724;2023-07-13T06:22:17;100264.78;;;17.33;60.77
74794;BME280;63320;50.768;6.724;2023-07-13T06:24:43;100268.69;;;17.52;60.50
74794;BME280;63320;50.768;6.724;2023-07-13T06:27:09;100282.44;;;17.34;61.27
74794;BME280;63320;50.768;6.724;2023-07-13T06:29:35;100267.81;;;17.40;61.16
74794;BME280;63320;50.768;6.724;2023-07-13T06:32:01;100272.16;;;17.41;61.52
74794;BME280;63320;50.768;6.724;2023-07-13T06:34:26;100283.25;;;17.24;62.19
74794;BME280;63320;50.768;6.724;2023-07-13T06:36:51;100289.97;;;17.17;62.65
74794;BME280;63320;50.768;6.724;2023-07-13T06:39:16;100276.31;;;17.21;62.71
74794;BME280;63320;50.768;6.724;2023-07-13T06:41:42;100283.72;;;17.53;61.74
74794;BME280;63320;50.768;6.724;2023-07-13T06:44:09;100285.88;;;17.48;61.62
74794;BME280;63320;50.768;6.724;2023-07-13T06:46:34;100290.97;;;17.27;62.37
74794;BME280;63320;50.768;6.724;2023-07-13T06:48:59;100303.66;;;17.23;62.48
74794;BME280;63320;50.768;6.724;2023-07-13T06:51:25;100299.41;;;17.21;62.64
74794;BME280;63320;50.768;6.724;2023-07-13T06:53:50;100294.16;;;17.32;62.30
74794;BME280;63320;50.768;6.724;2023-07-13T06:56:15;100302.25;;;17.42;62.04
74794;BME280;63320;50.768;6.724;2023-07-13T06:58:41;100308.78;;;17.38;62.12
74794;BME280;63320;50.768;6.724;2023-07-13T07:01:08;100299.00;;;17.38;62.20
74794;BME280;63320;50.768;6.724;2023-07-13T07:03:33;100295.56;;;17.60;61.77
74794;BME280;63320;50.768;6.724;2023-07-13T07:06:08;100303.91;;;17.67;61.56
74794;BME280;63320;50.768;6.724;2023-07-13T07:08:36;100291.94;;;17.61;61.28
74794;BME280;63320;50.768;6.724;2023-07-13T07:11:02;100313.31;;;17.59;61.20
74794;BME280;63320;50.768;6.724;2023-07-13T07:13:27;100310.13;;;17.43;62.01
74794;BME280;63320;50.768;6.724;2023-07-13T07:15:52;100317.16;;;17.79;61.36
74794;BME280;63320;50.768;6.724;2023-07-13T07:18:19;100313.59;;;18.03;60.49
74794;BME280;63320;50.768;6.724;2023-07-13T07:20:44;100319.25;;;17.98;60.34
74794;BME280;63320;50.768;6.724;2023-07-13T07:23:10;100313.22;;;18.07;60.49
74794;BME280;63320;50.768;6.724;2023-07-13T07:25:35;100303.56;;;18.18;59.82
74794;BME280;63320;50.768;6.724;2023-07-13T07:28:00;100318.78;;;18.27;59.25
74794;BME280;63320;50.768;6.724;2023-07-13T07:30:26;100306.19;;;18.06;59.72
74794;BME280;63320;50.768;6.724;2023-07-13T07:32:51;100306.31;;;18.05;59.42
74794;BME280;63320;50.768;6.724;2023-07-13T07:35:18;100320.22;;;17.97;59.78
74794;BME280;63320;50.768;6.724;2023-07-13T07:37:43;100314.78;;;17.99;59.86
74794;BME280;63320;50.768;6.724;2023-07-13T07:40:08;100307.78;;;17.98;59.49
74794;BME280;63320;50.768;6.724;2023-07-13T07:42:34;100308.63;;;18.32;58.45
74794;BME280;63320;50.768;6.724;2023-07-13T07:44:59;100308.25;;;18.36;58.08
74794;BME280;63320;50.768;6.724;2023-07-13T07:47:25;100311.53;;;18.29;58.46
74794;BME280;63320;50.768;6.724;2023-07-13T07:49:50;100311.03;;;18.35;58.01
74794;BME280;63320;50.768;6.724;2023-07-13T07:52:17;100307.88;;;18.52;57.35
74794;BME280;63320;50.768;6.724;2023-07-13T07:54:42;100311.53;;;18.40;56.99
74794;BME280;63320;50.768;6.724;2023-07-13T07:57:07;100310.19;;;18.34;57.95
74794;BME280;63320;50.768;6.724;2023-07-13T07:59:33;100313.22;;;18.75;57.06
74794;BME280;63320;50.768;6.724;2023-07-13T08:01:58;100302.81;;;18.83;57.29
74794;BME280;63320;50.768;6.724;2023-07-13T08:04:24;100304.69;;;18.92;57.01
74794;BME280;63320;50.768;6.724;2023-07-13T08:06:49;100306.13;;;18.96;56.68
74794;BME280;63320;50.768;6.724;2023-07-13T08:09:16;100315.47;;;18.91;56.66
74794;BME280;63320;50.768;6.724;2023-07-13T08:11:41;100311.75;;;18.93;56.13
74794;BME280;63320;50.768;6.724;2023-07-13T08:14:06;100313.16;;;18.97;56.25
74794;BME280;63320;50.768;6.724;2023-07-13T08:16:32;100294.03;;;18.92;55.56
74794;BME280;63320;50.768;6.724;2023-07-13T08:18:57;100304.31;;;18.97;55.57
74794;BME280;63320;50.768;6.724;2023-07-13T08:21:22;100302.41;;;18.87;55.79
74794;BME280;63320;50.768;6.724;2023-07-13T08:23:48;100300.75;;;19.19;55.19
74794;BME280;63320;50.768;6.724;2023-07-13T08:26:14;100299.97;;;18.96;55.66
74794;BME280;63320;50.768;6.724;2023-07-13T08:28:40;100297.19;;;19.29;55.30
74794;BME280;63320;50.768;6.724;2023-07-13T08:31:07;100303.53;;;19.17;55.48
74794;BME280;63320;50.768;6.724;2023-07-13T08:33:34;100297.50;;;19.36;54.65
74794;BME280;63320;50.768;6.724;2023-07-13T08:36:00;100305.09;;;19.20;55.31
74794;BME280;63320;50.768;6.724;2023-07-13T08:38:25;100302.72;;;19.37;55.02
74794;BME280;63320;50.768;6.724;2023-07-13T08:40:55;100303.13;;;19.33;56.07
74794;BME280;63320;50.768;6.724;2023-07-13T08:43:26;100295.00;;;19.34;55.32
74794;BME280;63320;50.768;6.724;2023-07-13T08:45:55;100290.75;;;19.53;55.37
74794;BME280;63320;50.768;6.724;2023-07-13T08:48:24;100290.16;;;19.60;55.10
74794;BME280;63320;50.768;6.724;2023-07-13T08:50:55;100290.75;;;19.64;54.96
74794;BME280;63320;50.768;6.724;2023-07-13T08:53:23;100295.25;;;19.63;54.96
74794;BME280;63320;50.768;6.724;2023-07-13T08:55:51;100289.50;;;19.89;54.41
74794;BME280;63320;50.768;6.724;2023-07-13T08:58:21;100306.16;;;19.81;53.85
74794;BME280;63320;50.768;6.724;2023-07-13T09:00:52;100295.75;;;19.99;53.64
74794;BME280;63320;50.768;6.724;2023-07-13T09:03:22;100289.66;;;19.97;53.47
74794;BME280;63320;50.768;6.724;2023-07-13T09:05:52;100296.75;;;20.08;52.95
74794;BME280;63320;50.768;6.724;2023-07-13T09:08:31;100302.06;;;20.29;52.84
74794;BME280;63320;50.768;6.724;2023-07-13T09:11:04;100291.75;;;20.14;52.74
74794;BME280;63320;50.768;6.724;2023-07-13T09:13:36;100302.97;;;20.08;53.26
74794;BME280;63320;50.768;6.724;2023-07-13T09:16:04;100304.81;;;20.17;53.10
74794;BME280;63320;50.768;6.724;2023-07-13T09:18:33;100299.41;;;20.29;52.91
74794;BME280;63320;50.768;6.724;2023-07-13T09:21:03;100297.13;;;20.24;52.92
74794;BME280;63320;50.768;6.724;2023-07-13T09:23:29;100297.56;;;20.29;51.85
74794;BME280;63320;50.768;6.724;2023-07-13T09:26:00;100303.75;;;20.30;52.37
74794;BME280;63320;50.768;6.724;2023-07-13T09:28:28;100304.69;;;20.50;49.49
74794;BME280;63320;50.768;6.724;2023-07-13T09:31:01;100291.44;;;20.79;48.06
74794;BME280;63320;50.768;6.724;2023-07-13T09:33:29;100299.16;;;20.91;46.98
74794;BME280;63320;50.768;6.724;2023-07-13T09:35:55;100302.69;;;20.92;47.29
74794;BME280;63320;50.768;6.724;2023-07-13T09:38:22;100290.91;;;21.04;47.12
74794;BME280;63320;50.768;6.724;2023-07-13T09:41:04;100304.66;;;20.90;48.21
74794;BME280;63320;50.768;6.724;2023-07-13T09:43:36;100300.00;;;20.92;47.14
74794;BME280;63320;50.768;6.724;2023-07-13T09:46:02;100312.94;;;20.87;47.19
74794;BME280;63320;50.768;6.724;2023-07-13T09:48:34;100310.16;;;21.08;46.44
74794;BME280;63320;50.768;6.724;2023-07-13T09:51:07;100309.31;;;20.98;46.92
74794;BME280;63320;50.768;6.724;2023-07-13T09:53:36;100310.00;;;20.90;46.97
74794;BME280;63320;50.768;6.724;2023-07-13T09:56:01;100307.59;;;20.87;46.93
74794;BME280;63320;50.768;6.724;2023-07-13T09:58:30;100303.72;;;21.10;46.35
74794;BME280;63320;50.768;6.724;2023-07-13T10:00:57;100307.94;;;21.23;45.73
74794;BME280;63320;50.768;6.724;2023-07-13T10:03:25;100297.09;;;21.24;44.81
74794;BME280;63320;50.768;6.724;2023-07-13T10:05:53;100319.44;;;21.13;44.81
74794;BME280;63320;50.768;6.724;2023-07-13T10:08:21;100309.59;;;20.94;45.59
74794;BME280;63320;50.768;6.724;2023-07-13T10:10:52;100313.25;;;21.13;45.26
74794;BME280;63320;50.768;6.724;2023-07-13T10:13:30;100309.06;;;21.20;44.61
74794;BME280;63320;50.768;6.724;2023-07-13T10:15:57;100306.50;;;21.18;45.46
74794;BME280;63320;50.768;6.724;2023-07-13T10:18:24;100308.53;;;21.45;44.18
74794;BME280;63320;50.768;6.724;2023-07-13T10:20:55;100312.63;;;21.59;43.88
74794;BME280;63320;50.768;6.724;2023-07-13T10:23:24;100319.91;;;21.57;43.67
74794;BME280;63320;50.768;6.724;2023-07-13T10:25:52;100326.22;;;21.27;44.34
74794;BME280;63320;50.768;6.724;2023-07-13T10:28:24;100336.28;;;21.35;43.65
74794;BME280;63320;50.768;6.724;2023-07-13T10:30:53;100313.31;;;21.52;43.83
74794;BME280;63320;50.768;6.724;2023-07-13T10:33:19;100343.16;;;21.47;43.49
74794;BME280;63320;50.768;6.724;2023-07-13T10:35:45;100326.38;;;21.26;44.17
74794;BME280;63320;50.768;6.724;2023-07-13T10:38:14;100324.75;;;21.44;43.68
74794;BME280;63320;50.768;6.724;2023-07-13T10:40:43;100333.31;;;21.38;43.97
74794;BME280;63320;50.768;6.724;2023-07-13T10:43:14;100329.22;;;21.53;44.16
74794;BME280;63320;50.768;6.724;2023-07-13T10:45:43;100341.47;;;21.36;44.06
74794;BME280;63320;50.768;6.724;2023-07-13T10:48:12;100344.31;;;21.54;42.87
74794;BME280;63320;50.768;6.724;2023-07-13T10:50:40;100346.56;;;21.59;42.76
74794;BME280;63320;50.768;6.724;2023-07-13T10:53:19;100334.13;;;21.19;44.08
74794;BME280;63320;50.768;6.724;2023-07-13T10:55:56;100342.44;;;21.26;43.87
74794;BME280;63320;50.768;6.724;2023-07-13T10:58:24;100340.47;;;21.37;43.02
74794;BME280;63320;50.768;6.724;2023-07-13T11:01:00;100364.28;;;21.50;42.79
74794;BME280;63320;50.768;6.724;2023-07-13T11:03:28;100352.19;;;21.36;43.08
74794;BME280;63320;50.768;6.724;2023-07-13T11:06:06;100342.28;;;21.27;43.25
74794;BME280;63320;50.768;6.724;2023-07-13T11:08:35;100341.75;;;21.33;43.04
74794;BME280;63320;50.768;6.724;2023-07-13T11:11:01;100335.56;;;21.52;43.63
74794;BME280;63320;50.768;6.724;2023-07-13T11:13:37;100351.34;;;21.45;42.78
74794;BME280;63320;50.768;6.724;2023-07-13T11:16:12;100332.03;;;21.61;43.13
74794;BME280;63320;50.768;6.724;2023-07-13T11:18:38;100342.16;;;21.48;42.80
74794;BME280;63320;50.768;6.724;2023-07-13T11:21:14;100339.47;;;21.29;43.27
74794;BME280;63320;50.768;6.724;2023-07-13T11:23:45;100326.56;;;21.34;43.57
74794;BME280;63320;50.768;6.724;2023-07-13T11:26:37;100325.09;;;21.78;42.74
74794;BME280;63320;50.768;6.724;2023-07-13T11:29:08;100335.59;;;22.28;42.38
74794;BME280;63320;50.768;6.724;2023-07-13T11:31:34;100336.75;;;22.06;43.10
74794;BME280;63320;50.768;6.724;2023-07-13T11:34:00;100342.31;;;21.76;43.75
74794;BME280;63320;50.768;6.724;2023-07-13T11:36:31;100336.69;;;21.59;44.06
74794;BME280;63320;50.768;6.724;2023-07-13T11:39:02;100348.22;;;21.31;44.26
74794;BME280;63320;50.768;6.724;2023-07-13T11:41:31;100357.31;;;21.18;44.79
74794;BME280;63320;50.768;6.724;2023-07-13T11:44:06;100350.28;;;21.17;45.29
74794;BME280;63320;50.768;6.724;2023-07-13T11:46:32;100354.63;;;20.99;45.94
74794;BME280;63320;50.768;6.724;2023-07-13T11:48:57;100356.63;;;21.16;45.55
74794;BME280;63320;50.768;6.724;2023-07-13T11:51:23;100347.31;;;21.01;46.29
74794;BME280;63320;50.768;6.724;2023-07-13T11:53:51;100361.97;;;21.16;46.32
74794;BME280;63320;50.768;6.724;2023-07-13T11:56:18;100364.91;;;21.13;45.93
74794;BME280;63320;50.768;6.724;2023-07-13T11:58:44;100372.09;;;21.13;44.97
74794;BME280;63320;50.768;6.724;2023-07-13T12:01:18;100363.22;;;21.03;43.88
74794;BME280;63320;50.768;6.724;2023-07-13T12:03:45;100368.72;;;21.11;44.44
74794;BME280;63320;50.768;6.724;2023-07-13T12:06:23;100362.25;;;21.23;44.93
74794;BME280;63320;50.768;6.724;2023-07-13T12:08:49;100364.78;;;21.05;45.05
74794;BME280;63320;50.768;6.724;2023-07-13T12:11:16;100371.81;;;21.16;44.78
74794;BME280;63320;50.768;6.724;2023-07-13T12:13:44;100376.59;;;21.12;44.32
74794;BME280;63320;50.768;6.724;2023-07-13T12:16:14;100358.03;;;21.20;44.56
74794;BME280;63320;50.768;6.724;2023-07-13T12:18:42;100359.31;;;21.16;44.79
74794;BME280;63320;50.768;6.724;2023-07-13T12:21:12;100361.81;;;21.08;44.65
74794;BME280;63320;50.768;6.724;2023-07-13T12:23:38;100365.59;;;20.96;45.17
74794;BME280;63320;50.768;6.724;2023-07-13T12:26:06;100362.88;;;20.86;44.74
74794;BME280;63320;50.768;6.724;2023-07-13T12:28:34;100353.78;;;21.08;44.46
74794;BME280;63320;50.768;6.724;2023-07-13T12:31:04;100353.16;;;21.35;43.87
74794;BME280;63320;50.768;6.724;2023-07-13T12:33:30;100351.47;;;21.34;43.32
74794;BME280;63320;50.768;6.724;2023-07-13T12:35:56;100350.19;;;21.38;42.79
74794;BME280;63320;50.768;6.724;2023-07-13T12:38:24;100351.03;;;21.49;42.75
74794;BME280;63320;50.768;6.724;2023-07-13T12:40:52;100347.94;;;21.43;42.53
74794;BME280;63320;50.768;6.724;2023-07-13T12:43:19;100346.25;;;21.81;42.54
74794;BME280;63320;50.768;6.724;2023-07-13T12:45:56;100378.53;;;21.60;42.89
74794;BME280;63320;50.768;6.724;2023-07-13T12:48:23;100354.28;;;21.62;42.60
74794;BME280;63320;50.768;6.724;2023-07-13T12:50:49;100364.00;;;21.82;42.83